Etusivu
METAR-TAF:

METAR-TAF

Lentoasemat :

Khajuraho, Intia

Leveyspiiri: 24-49-02N, Pituuspiiri: 79-55-07E, korkeus merenpinnasta: 222 m

Tämänhetkinen sää

Tämä raportti tehtiin 4 tuntia ja 24 minuuttia sitten, kello 09.00 UTC
Tuuli 4 kn etelästä/kaakosta
Lämpötila 32°C
Kosteus 59%
Ilmanpaine 998 hPa
Näkyvyys: 6000 m
Hajanaisia pilviä 2500 ft:n korkeudessa
Hajonneita pilviä 10000 ft:n korkeudessa

METAR: VEKO 220900Z 16004KT 6000 SCT025 BKN100 32/23 Q0998

Aika: 18:54 (13:24 UTC)


TAF: puuttuu

Säähavainnot ja -ennusteet yli 4000 lentoasemalta (METAR- ja TAF-raportit).

Käytössä olevat sääasemat on merkitty karttaan keltaisilla ja punaisilla pisteillä.

Aseta hiiri pisteen päälle nähdäksesi sääaseman nimen.

Klikkaa sitten nähdäksesi säähavainnot ja -ennusteet.

Kartan vaihtaminen: klikkaa mustalla rastilla varustettuja vihreitä pisteitä, niin voit zoomata sisään; viivalla varustettua vihreää pistettä, niin voit zoomata ulos tai vihreitä nuolia, niin pääset viereisille kartoille.


METAR-TAF: